ADDS METAR Data INFO
IDs: Format: Raw Decoded Include TAF

Data at: 2012 UTC 19 Oct 2017

PHMK 191954Z 05023G28KT 10SM FEW031 27/19 A3012 RMK AO2 PK WND 06032/1858 SLP202 T02720189
PHMK 191854Z 06019G28KT 10SM SCT032 27/19 A3012 RMK AO2 PK WND 05028/1824 SLP202 T02670189
PHMK 191754Z 05019G27KT 10SM FEW031 FEW038 SCT045 25/18 A3012 RMK AO2 PK WND 06027/1754 SLP203 T02500183 10250 20222 51013
PHMK 191654Z 06012G21KT 10SM FEW027 SCT035 BKN044 24/19 A3012 RMK AO2 SLP202 T02390194
PHMK 191554Z 04012G24KT 10SM FEW023 SCT028 BKN050 24/20 A3009 RMK AO2 SLP192 T02390200
PHMK 191454Z AUTO 05015G24KT 10SM FEW007 SCT031 SCT050 24/19 A3009 RMK AO2 SLP189 T02390189 56005 TSNO
PHMK 191354Z AUTO 05013G18KT 10SM FEW028 SCT039 BKN049 23/19 A3009 RMK AO2 SLP189 T02330194 TSNO
PHMK 191254Z AUTO 05009G15KT 10SM FEW038 BKN050 23/20 A3008 RMK AO2 SLP188 T02280200 TSNO
PHMK 191154Z AUTO 05014G21KT 10SM FEW037 SCT047 SCT065 24/19 A3010 RMK AO2 SLP195 70002 T02390194 10244 20228 56012 TSNO
PHMK 191054Z AUTO 05014G17KT 10SM FEW034 FEW045 SCT055 24/19 A3011 RMK AO2 SLP199 T02390189 TSNO
PHMK 190954Z AUTO 06015G22KT 10SM FEW023 FEW032 BKN048 24/19 A3012 RMK AO2 SLP201 T02390194 402830228 TSNO
PHMK 190854Z AUTO 06012G19KT 10SM FEW025 FEW033 SCT041 23/20 A3014 RMK AO2 PK WND 05030/0800 SLP206 T02330200 53010 TSNO
PHMK 190754Z AUTO 05015G25KT 10SM FEW027 SCT034 BKN044 24/20 A3012 RMK AO2 PK WND 06027/0701 SLP202 T02390200 TSNO
PHMK 190654Z AUTO 05015G22KT 10SM SCT025 BKN033 BKN042 24/20 A3012 RMK AO2 SLP201 T02390200 TSNO
PHMK 190554Z AUTO 06015G21KT 10SM FEW025 SCT034 BKN042 23/20 A3011 RMK AO2 SLP196 T02330200 10283 20228 53012 TSNO
PHMK 190529Z AUTO 05012G19KT 10SM FEW026 SCT036 BKN045 23/20 A3010 RMK AO2 T02330200 TSNO
PHMK 190518Z AUTO 06012G22KT 10SM BKN024 BKN037 23/21 A3010 RMK AO2 T02330206 TSNO
PHMK 190454Z AUTO 07008G15KT 10SM SCT025 BKN034 BKN047 23/21 A3009 RMK AO2 SLP192 T02280206 TSNO
PHMK 190432Z AUTO 06010G20KT 9SM FEW016 BKN033 OVC047 23/21 A3008 RMK AO2 T02280206 TSNO
PHMK 190354Z 05009G18KT 010V070 10SM BKN029 BKN036 OVC060 25/19 A3006 RMK AO2 SLP182 T02500194
PHMK 190254Z 05009KT 10SM BKN032 BKN043 26/19 A3007 RMK AO2 SLP184 T02560194 55004
PHMK 190154Z 05012G28KT 10SM SCT030 SCT039 27/19 A3006 RMK AO2 PK WND 06030/0143 SLP181 T02670189
PHMK 190054Z 05013G29KT 10SM FEW033 SCT043 28/19 A3007 RMK AO2 PK WND 06029/0051 SLP182 T02780189
PHMK 182354Z 05012G23KT 10SM FEW034 SCT050 27/18 A3008 RMK AO2 PK WND 07029/2331 RAE50 SLP188 P0001 60002 T02670183 10283 20239 58014
PHMK 182331Z 06018G29KT 10SM -RA FEW021 SCT027 BKN050 26/20 A3009 RMK AO2 PK WND 07029/2331 P0001 T02610200
PHMK 182324Z 05017G25KT 10SM -RA FEW021 BKN029 OVC048 26/21 A3009 RMK AO2 P0001 T02560206
PHMK 182254Z 05014G25KT 10SM -RA FEW025 SCT040 BKN055 26/21 A3010 RMK AO2 PK WND 05027/2228 SLP193 P0000 T02610206
PHMK 182154Z 06019G28KT 10SM RA FEW039 BKN055 27/21 A3011 RMK AO2 PK WND 06028/2147 SLP198 P0001 T02670206
PHMK 182054Z 03014G22KT 10SM RA SCT021 BKN030 OVC055 26/21 A3012 RMK AO2 PK WND 07027/2033 RAB27E36B53 SLP202 P0000 60000 T02560206 51010
PHMK 181954Z 05015G25KT 10SM SCT030 BKN037 BKN043 26/19 A3012 RMK AO2 PK WND 05030/1923 SLP201 T02610194
PHMK 181854Z 05019G26KT 10SM FEW028 SCT036 SCT044 26/19 A3010 RMK AO2 PK WND 06027/1810 SLP195 T02610189
PHMK 181754Z 06018G26KT 10SM FEW028 SCT035 24/19 A3009 RMK AO2 PK WND 05027/1716 SLP191 60000 T02440194 10250 20228 53011
PHMK 181654Z 05015G22KT 10SM FEW032 SCT042 23/18 A3008 RMK AO2 PK WND 06027/1631 RAB20E43 SLP187 P0000 T02330178
PHMK 181554Z 05013G21KT 10SM FEW027 SCT036 BKN047 24/19 A3006 RMK AO2 SLP182 T02390189
PHMK 181454Z AUTO 07009KT 10SM FEW026 FEW031 FEW040 23/19 A3006 RMK AO2 PK WND 06027/1357 SLP180 T02330189 55004 TSNO
PHMK 181354Z AUTO 05014G22KT 10SM SCT028 SCT035 BKN055 24/19 A3006 RMK AO2 PK WND 06027/1311 SLP179 T02390189 TSNO
PHMK 181254Z AUTO 04013G25KT 10SM SCT034 BKN044 24/18 A3006 RMK AO2 SLP180 T02390178 TSNO
PHMK 181154Z AUTO 05011G20KT 10SM FEW035 SCT043 24/18 A3007 RMK AO2 PK WND 05029/1128 SLP185 60000 T02390178 10244 20233 58009 TSNO
PHMK 181054Z AUTO 06014G22KT 10SM SCT035 24/18 A3009 RMK AO2 SLP188 T02390178 TSNO
PHMK 180954Z AUTO 05015G23KT 10SM FEW030 SCT041 24/18 A3009 RMK AO2 PK WND 07027/0905 RAB26E34 SLP190 P0000 T02390183 402890233 TSNO
PHMK 180854Z AUTO 05015G23KT 10SM FEW028 SCT044 SCT055 24/19 A3010 RMK AO2 PK WND 05027/0807 SLP194 60000 T02390189 51007 TSNO